Delta Virtual Airport Information Service

George Town Owen Roberts International Airport

ICAO: MWCR Country: Cayman Islands
Latitude: 19.2928 Longitude: -81.3577
Latest Arrival : AAL1007 (KMIA-MWCR) Latest Departure : WJA2595 (2) (MWCR-CYYZ)


WX CaptureLIVE
Data provided by noaa.gov | Fetched at 00:54:23

METAR : MWCR 120300Z 09004KT CAVOK 28/25 Q1015

TAF : MWCR 120300Z 1200/1224 CNL


Runway Data for MWCR
Data provided by openaviationdata.com

Runway ID Mag Var Hdg Length Elevation Surface ILS Freq ILS Id ILS Slope
8 -3 78° 7421 ft 8 ft Concrete -- -- --
26 -3 258° 7421 ft 8 ft Concrete -- -- --

George Town Owen Roberts International Airport, Cayman Islands
Use only for reference purposes



Not for navigational purposes.